MOL Paramount — 3ECH9 — position and weather

sailwx.info

Track history (hours):
 
Tides and Currents Weather Stations Pressure Air Temp Water Temp Dewpoint Dewpoint Depression Visibility Wind Speed Wind Dir Waves Ship Positions

MOL Paramount

Last reported at 2016-Jan-30 18:32 UTC. Time now 2016-Feb-11 00:29 UTC.
Position N 01°12' E 103°34'.
Warning: this ship's position is 11 days out of date.

Length 293 m; draft 11.8 m.

Type: Cargo ship. MMSI: 371519000.

Date/timePositionNaut miles runAvg speedWind from/ knotsBaromVisibWave heightAir tempDewpointWater temp
2016-Jan-30 18:32N 01°12' E 103°34'1111.1
2016-Jan-30 17:33N 01°16' E 103°45'1 1.4
2016-Jan-30 16:32N 01°16' E 103°46'0 0.0
2016-Jan-30 15:32N 01°16' E 103°46'0 0.0
2016-Jan-30 14:29N 01°16' E 103°46'0 0.0
2016-Jan-30 13:32N 01°16' E 103°46'0 0.0
2016-Jan-30 12:32N 01°16' E 103°46'0 0.0
2016-Jan-30 11:29N 01°16' E 103°46'0 0.0
2016-Jan-30 10:29N 01°16' E 103°46'0 0.0
2016-Jan-30 09:32N 01°16' E 103°46'0 0.0
2016-Jan-30 08:32N 01°16' E 103°46'0 0.0
2016-Jan-30 07:32N 01°16' E 103°46'0 0.0
2016-Jan-30 06:29N 01°16' E 103°46'0 0.0
2016-Jan-30 05:32N 01°16' E 103°46'0 0.0
2016-Jan-30 04:32N 01°16' E 103°46'0 0.0
2016-Jan-30 03:32N 01°16' E 103°46'0 0.0
2016-Jan-30 02:29N 01°16' E 103°46'0 0.0
2016-Jan-30 01:32N 01°16' E 103°46'0 0.0
2016-Jan-30 00:26N 01°16' E 103°46'0 0.0
2016-Jan-29 23:32N 01°16' E 103°46'0 0.0
2016-Jan-29 22:17N 01°16' E 103°46'0 0.0
2016-Jan-29 21:29N 01°16' E 103°46'0 0.0
2016-Jan-29 20:32N 01°16' E 103°46'0 0.0
2016-Jan-29 19:29N 01°16' E 103°46'0 0.5
2016-Jan-29 18:33N 01°16' E 103°46'7 7.2
2016-Jan-29 17:33N 01°13' E 103°53'6 5.4
2016-Jan-29 16:31N 01°16' E 103°57'0 0.0
2016-Jan-29 15:22N 01°16' E 103°57'0 0.1
2016-Jan-29 14:22N 01°16' E 103°57'0 0.0
2016-Jan-29 13:25N 01°16' E 103°57'0 0.0
2016-Jan-29 12:31N 01°16' E 103°57'0 0.0
2016-Jan-29 11:16N 01°16' E 103°57'0 0.0
2016-Jan-29 10:19N 01°16' E 103°57'0 0.0
2016-Jan-29 09:28N 01°16' E 103°57'0 0.0
2016-Jan-29 08:25N 01°16' E 103°57'0 0.0
2016-Jan-29 07:31N 01°16' E 103°57'0 0.0
2016-Jan-29 06:22N 01°16' E 103°57'0 0.1
2016-Jan-29 05:22N 01°16' E 103°57'0 0.0
2016-Jan-29 04:28N 01°16' E 103°57'0 0.1
2016-Jan-29 03:16N 01°16' E 103°57'0 0.0
2016-Jan-29 02:28N 01°16' E 103°57'0 0.0
2016-Jan-29 01:04N 01°16' E 103°57'0 0.0
2016-Jan-29 00:10N 01°16' E 103°57'0 0.0
2016-Jan-28 23:28N 01°16' E 103°57'0 0.0
2016-Jan-28 22:33N 01°16' E 103°57'3 2.7
2016-Jan-28 21:34N 01°16' E 103°60'9 8.6
2016-Jan-28 20:31N 01°17' E 104°09'  
2016-Jan-23 00:30N 21°59' E 114°21'7 6.4
2016-Jan-22 23:26N 22°04' E 114°16'2 0.1
2016-Jan-21 22:20N 22°06' E 114°15'  
Track history (hours):
 
Tides and Currents Weather Stations Pressure Air Temp Water Temp Dewpoint Dewpoint Depression Visibility Wind Speed Wind Dir Waves Ship Positions

MOL Paramount

Last reported at 2016-Jan-30 18:32 UTC. Time now 2016-Feb-11 00:29 UTC.
Position N 01°12' E 103°34'.
Warning: this ship's position is 11 days out of date.

Length 293 m; draft 11.8 m.

Type: Cargo ship. MMSI: 371519000.

Date/timePositionNaut miles runAvg speedWind from/ knotsBaromVisibWave heightAir tempDewpointWater temp
2016-Jan-30 18:32N 01°12' E 103°34'1111.1
2016-Jan-30 17:33N 01°16' E 103°45'1 1.4
2016-Jan-30 16:32N 01°16' E 103°46'0 0.0
2016-Jan-30 15:32N 01°16' E 103°46'0 0.0
2016-Jan-30 14:29N 01°16' E 103°46'0 0.0
2016-Jan-30 13:32N 01°16' E 103°46'0 0.0
2016-Jan-30 12:32N 01°16' E 103°46'0 0.0
2016-Jan-30 11:29N 01°16' E 103°46'0 0.0
2016-Jan-30 10:29N 01°16' E 103°46'0 0.0
2016-Jan-30 09:32N 01°16' E 103°46'0 0.0
2016-Jan-30 08:32N 01°16' E 103°46'0 0.0
2016-Jan-30 07:32N 01°16' E 103°46'0 0.0
2016-Jan-30 06:29N 01°16' E 103°46'0 0.0
2016-Jan-30 05:32N 01°16' E 103°46'0 0.0
2016-Jan-30 04:32N 01°16' E 103°46'0 0.0
2016-Jan-30 03:32N 01°16' E 103°46'0 0.0
2016-Jan-30 02:29N 01°16' E 103°46'0 0.0
2016-Jan-30 01:32N 01°16' E 103°46'0 0.0
2016-Jan-30 00:26N 01°16' E 103°46'0 0.0
2016-Jan-29 23:32N 01°16' E 103°46'0 0.0
2016-Jan-29 22:17N 01°16' E 103°46'0 0.0
2016-Jan-29 21:29N 01°16' E 103°46'0 0.0
2016-Jan-29 20:32N 01°16' E 103°46'0 0.0
2016-Jan-29 19:29N 01°16' E 103°46'0 0.5
2016-Jan-29 18:33N 01°16' E 103°46'7 7.2
2016-Jan-29 17:33N 01°13' E 103°53'6 5.4
2016-Jan-29 16:31N 01°16' E 103°57'0 0.0
2016-Jan-29 15:22N 01°16' E 103°57'0 0.1
2016-Jan-29 14:22N 01°16' E 103°57'0 0.0
2016-Jan-29 13:25N 01°16' E 103°57'0 0.0
2016-Jan-29 12:31N 01°16' E 103°57'0 0.0
2016-Jan-29 11:16N 01°16' E 103°57'0 0.0
2016-Jan-29 10:19N 01°16' E 103°57'0 0.0
2016-Jan-29 09:28N 01°16' E 103°57'0 0.0
2016-Jan-29 08:25N 01°16' E 103°57'0 0.0
2016-Jan-29 07:31N 01°16' E 103°57'0 0.0
2016-Jan-29 06:22N 01°16' E 103°57'0 0.1
2016-Jan-29 05:22N 01°16' E 103°57'0 0.0
2016-Jan-29 04:28N 01°16' E 103°57'0 0.1
2016-Jan-29 03:16N 01°16' E 103°57'0 0.0
2016-Jan-29 02:28N 01°16' E 103°57'0 0.0
2016-Jan-29 01:04N 01°16' E 103°57'0 0.0
2016-Jan-29 00:10N 01°16' E 103°57'0 0.0
2016-Jan-28 23:28N 01°16' E 103°57'0 0.0
2016-Jan-28 22:33N 01°16' E 103°57'3 2.7
2016-Jan-28 21:34N 01°16' E 103°60'9 8.6
2016-Jan-28 20:31N 01°17' E 104°09'  
2016-Jan-23 00:30N 21°59' E 114°21'7 6.4
2016-Jan-22 23:26N 22°04' E 114°16'2 0.1
2016-Jan-21 22:20N 22°06' E 114°15'  

Dump ship's entire track history